createdAt,value
2016-09-01T00:00:29.969Z,0
2016-09-01T00:01:33.754Z,0
2016-09-01T00:03:30.286Z,0
2016-09-01T00:04:29.765Z,0
2016-09-01T00:05:31.361Z,0
2016-09-01T00:06:30.252Z,0
2016-09-01T00:07:30.318Z,0
2016-09-01T00:08:32.150Z,0
2016-09-01T00:09:34.114Z,0
2016-09-01T00:10:30.397Z,0
2016-09-01T00:11:34.431Z,0
2016-09-01T00:12:30.391Z,0
2016-09-01T00:13:33.543Z,0
2016-09-01T00:14:30.669Z,0
2016-09-01T00:15:32.351Z,0
2016-09-01T00:16:30.606Z,0
2016-09-01T00:17:31.605Z,0
2016-09-01T00:18:30.894Z,0
2016-09-01T00:19:35.521Z,0
2016-09-01T00:20:31.298Z,0
2016-09-01T00:21:31.430Z,0
2016-09-01T00:22:32.119Z,0
2016-09-01T00:23:31.257Z,0
2016-09-01T00:24:32.524Z,0
2016-09-01T00:25:32.070Z,0
2016-09-01T00:26:32.004Z,0
2016-09-01T00:27:32.423Z,0
2016-09-01T00:28:31.545Z,0
2016-09-01T00:29:30.718Z,0
2016-09-01T00:30:31.060Z,0
2016-09-01T00:31:30.876Z,0
2016-09-01T00:32:30.908Z,0
2016-09-01T00:33:32.147Z,0
2016-09-01T00:34:31.676Z,0
2016-09-01T00:36:30.668Z,0
2016-09-01T00:38:31.807Z,0
2016-09-01T00:39:31.153Z,0
2016-09-01T00:40:32.912Z,0
2016-09-01T00:41:31.580Z,0
2016-09-01T00:42:31.295Z,0
2016-09-01T00:43:32.069Z,0
2016-09-01T00:44:32.344Z,0
2016-09-01T00:45:35.504Z,0
2016-09-01T00:46:36.356Z,0
2016-09-01T00:47:32.867Z,0
2016-09-01T00:48:32.895Z,0
2016-09-01T00:49:32.187Z,0
2016-09-01T00:50:33.118Z,0
2016-09-01T00:51:32.327Z,0
2016-09-01T00:52:33.513Z,0
2016-09-01T00:53:32.344Z,0
2016-09-01T00:55:33.283Z,0
2016-09-01T00:56:33.077Z,0
2016-09-01T00:57:32.896Z,0
2016-09-01T00:58:33.179Z,0
2016-09-01T00:59:31.293Z,0
2016-09-01T01:00:32.032Z,0
2016-09-01T01:01:32.661Z,0
2016-09-01T01:03:33.458Z,0
2016-09-01T01:04:31.917Z,0
2016-09-01T01:05:31.976Z,0
2016-09-01T01:06:31.963Z,0
2016-09-01T01:07:32.742Z,0
2016-09-01T01:08:32.799Z,0
2016-09-01T01:09:32.507Z,0
2016-09-01T01:10:33.038Z,0
2016-09-01T01:11:32.047Z,0
2016-09-01T01:12:32.353Z,0
2016-09-01T01:13:33.929Z,0
2016-09-01T01:14:32.594Z,0
2016-09-01T01:15:37.126Z,0
2016-09-01T01:16:32.918Z,0
2016-09-01T01:17:32.041Z,0
2016-09-01T01:18:33.205Z,0
2016-09-01T01:19:32.520Z,0
2016-09-01T01:20:33.608Z,0
2016-09-01T01:21:32.445Z,0
2016-09-01T01:22:33.738Z,0
2016-09-01T01:23:32.418Z,0
2016-09-01T01:24:32.191Z,0
2016-09-01T01:25:33.329Z,0
2016-09-01T01:26:33.687Z,0
2016-09-01T01:27:31.943Z,0
2016-09-01T01:28:33.394Z,0
2016-09-01T01:29:32.455Z,0
2016-09-01T01:30:32.482Z,0
2016-09-01T01:31:32.906Z,0
2016-09-01T01:32:32.418Z,0
2016-09-01T01:34:31.868Z,0
2016-09-01T01:35:34.103Z,0
2016-09-01T01:36:32.888Z,0
2016-09-01T01:37:35.418Z,0
2016-09-01T01:38:33.358Z,0
2016-09-01T01:39:32.976Z,0
2016-09-01T01:40:32.397Z,0
2016-09-01T01:41:31.992Z,0
2016-09-01T01:42:32.216Z,0
2016-09-01T01:43:32.248Z,0
2016-09-01T01:44:33.265Z,0
2016-09-01T01:45:34.061Z,0
2016-09-01T01:46:32.970Z,0
2016-09-01T01:47:34.223Z,0
2016-09-01T01:48:32.572Z,0
2016-09-01T01:49:33.921Z,0
2016-09-01T01:50:32.848Z,0
2016-09-01T01:51:33.498Z,0
2016-09-01T01:52:36.882Z,0
2016-09-01T01:53:32.311Z,0
2016-09-01T01:54:33.178Z,0
2016-09-01T01:55:33.275Z,0
2016-09-01T01:57:33.395Z,0
2016-09-01T01:58:32.266Z,0
2016-09-01T01:59:34.689Z,0
2016-09-01T02:00:33.405Z,0
2016-09-01T02:01:32.299Z,0
2016-09-01T02:02:33.303Z,0
2016-09-01T02:03:34.000Z,0
2016-09-01T02:04:33.358Z,0
2016-09-01T02:05:34.341Z,0
2016-09-01T02:06:33.344Z,0
2016-09-01T02:07:34.513Z,0
2016-09-01T02:08:34.323Z,0
2016-09-01T02:09:33.746Z,0
2016-09-01T02:10:33.290Z,0
2016-09-01T02:11:33.308Z,0
2016-09-01T02:12:33.249Z,0
2016-09-01T02:13:37.617Z,0
2016-09-01T02:14:33.670Z,0
2016-09-01T02:15:35.597Z,0
2016-09-01T02:16:34.044Z,0
2016-09-01T02:17:35.945Z,0
2016-09-01T02:18:33.090Z,0
2016-09-01T02:19:34.025Z,0
2016-09-01T02:20:33.614Z,0
2016-09-01T02:21:37.185Z,0
2016-09-01T02:22:33.377Z,0
2016-09-01T02:23:33.122Z,0
2016-09-01T02:24:34.497Z,0
2016-09-01T02:25:34.960Z,0
2016-09-01T02:26:33.571Z,0
2016-09-01T02:27:33.412Z,0
2016-09-01T02:28:32.709Z,0
2016-09-01T02:29:34.400Z,0
2016-09-01T02:30:35.078Z,0
2016-09-01T02:31:33.372Z,0
2016-09-01T02:32:34.762Z,0
2016-09-01T02:33:34.763Z,0
2016-09-01T02:34:34.598Z,0
2016-09-01T02:35:34.788Z,0
2016-09-01T02:36:35.039Z,0
2016-09-01T02:37:35.126Z,0
2016-09-01T02:38:33.410Z,0
2016-09-01T02:39:34.907Z,0
2016-09-01T02:40:35.716Z,0
2016-09-01T02:41:33.370Z,0
2016-09-01T02:42:35.018Z,0
2016-09-01T02:43:34.237Z,0
2016-09-01T02:44:34.512Z,0
2016-09-01T02:45:34.890Z,0
2016-09-01T02:46:33.706Z,0
2016-09-01T02:47:34.366Z,0
2016-09-01T02:48:33.822Z,0
2016-09-01T02:49:35.022Z,0
2016-09-01T02:50:34.235Z,0
2016-09-01T02:51:33.415Z,0
2016-09-01T02:52:34.873Z,0
2016-09-01T02:53:35.202Z,0
2016-09-01T02:54:33.574Z,0
2016-09-01T02:55:35.135Z,0
2016-09-01T02:56:34.596Z,0
2016-09-01T02:57:35.000Z,0
2016-09-01T02:58:34.493Z,0
2016-09-01T02:59:35.285Z,0
2016-09-01T03:00:35.451Z,0
2016-09-01T03:01:34.873Z,0
2016-09-01T03:02:34.696Z,0
2016-09-01T03:03:34.535Z,0
2016-09-01T03:04:35.123Z,0
2016-09-01T03:05:35.697Z,0
2016-09-01T03:06:35.135Z,0
2016-09-01T03:07:34.693Z,0
2016-09-01T03:08:35.629Z,0
2016-09-01T03:09:33.704Z,0
2016-09-01T03:10:37.094Z,0
2016-09-01T03:11:34.581Z,0
2016-09-01T03:12:34.854Z,0
2016-09-01T03:13:35.147Z,0
2016-09-01T03:14:34.690Z,0
2016-09-01T03:15:36.578Z,0
2016-09-01T03:16:35.104Z,0
2016-09-01T03:17:35.176Z,0
2016-09-01T03:19:35.415Z,0
2016-09-01T03:20:35.799Z,0
2016-09-01T03:21:35.736Z,0
2016-09-01T03:22:36.849Z,0
2016-09-01T03:23:35.469Z,0
2016-09-01T03:24:34.564Z,0
2016-09-01T03:25:34.786Z,0
2016-09-01T03:26:36.104Z,0
2016-09-01T03:27:35.884Z,0
2016-09-01T03:28:36.826Z,0
2016-09-01T03:29:35.257Z,0
2016-09-01T03:30:36.612Z,0
2016-09-01T03:31:35.648Z,0
2016-09-01T03:32:34.864Z,0
2016-09-01T03:33:34.413Z,0
2016-09-01T03:34:36.869Z,0
2016-09-01T03:35:36.020Z,0
2016-09-01T03:36:36.059Z,0
2016-09-01T03:37:36.327Z,0
2016-09-01T03:38:34.669Z,0
2016-09-01T03:39:37.378Z,0
2016-09-01T03:40:35.573Z,0
2016-09-01T03:41:35.986Z,0
2016-09-01T03:42:35.851Z,0
2016-09-01T03:43:39.246Z,0
2016-09-01T03:44:35.581Z,0
2016-09-01T03:45:36.230Z,0
2016-09-01T03:46:37.302Z,0
2016-09-01T03:47:35.417Z,0
2016-09-01T03:48:38.189Z,0
2016-09-01T03:49:35.470Z,0
2016-09-01T03:50:35.669Z,0
2016-09-01T03:51:37.072Z,0
2016-09-01T03:52:37.320Z,0
2016-09-01T03:53:35.590Z,0
2016-09-01T03:54:36.281Z,0
2016-09-01T03:55:36.855Z,0
2016-09-01T03:56:35.998Z,0
2016-09-01T03:57:37.343Z,0
2016-09-01T03:58:35.976Z,4
2016-09-01T03:59:36.762Z,0
2016-09-01T04:00:35.537Z,0
2016-09-01T04:01:36.138Z,4
2016-09-01T04:02:36.908Z,0
2016-09-01T04:03:37.003Z,4
2016-09-01T04:04:37.236Z,4
2016-09-01T04:05:37.037Z,4
2016-09-01T04:06:37.142Z,8
2016-09-01T04:07:36.144Z,8
2016-09-01T04:08:35.073Z,12
2016-09-01T04:09:36.135Z,12
2016-09-01T04:10:37.986Z,16
2016-09-01T04:11:37.204Z,20
2016-09-01T04:12:36.678Z,24
2016-09-01T04:13:36.958Z,28
2016-09-01T04:14:38.176Z,32
2016-09-01T04:15:34.986Z,36
2016-09-01T04:16:41.002Z,44
2016-09-01T04:17:35.534Z,48
2016-09-01T04:18:37.598Z,60
2016-09-01T04:19:38.038Z,68
2016-09-01T04:20:37.966Z,76
2016-09-01T04:21:37.750Z,92
2016-09-01T04:22:39.204Z,104
2016-09-01T04:23:38.458Z,116
2016-09-01T04:24:37.301Z,132
2016-09-01T04:25:36.980Z,148
2016-09-01T04:26:36.580Z,168
2016-09-01T04:27:37.502Z,188
2016-09-01T04:28:37.464Z,212
2016-09-01T04:29:36.964Z,236
2016-09-01T04:30:38.040Z,264
2016-09-01T04:31:35.981Z,292
2016-09-01T04:32:37.745Z,320
2016-09-01T04:33:36.909Z,352
2016-09-01T04:34:36.445Z,384
2016-09-01T04:35:37.975Z,420
2016-09-01T04:36:37.543Z,452
2016-09-01T04:37:38.568Z,492
2016-09-01T04:38:37.071Z,524
2016-09-01T04:39:35.818Z,564
2016-09-01T04:40:36.676Z,608
2016-09-01T04:41:36.956Z,648
2016-09-01T04:42:39.086Z,696
2016-09-01T04:43:39.284Z,744
2016-09-01T04:44:36.966Z,792
2016-09-01T04:45:38.157Z,848
2016-09-01T04:46:38.595Z,900
2016-09-01T04:47:38.274Z,960
2016-09-01T04:48:37.743Z,1016
2016-09-01T04:49:36.245Z,1076
2016-09-01T04:50:38.102Z,1144
2016-09-01T04:51:37.355Z,1208
2016-09-01T04:52:37.590Z,1272
2016-09-01T04:53:36.945Z,1332
2016-09-01T04:54:37.872Z,1364
2016-09-01T04:55:37.031Z,1388
2016-09-01T04:56:38.445Z,1432
2016-09-01T04:57:38.415Z,1504
2016-09-01T04:58:37.674Z,1572
2016-09-01T04:59:38.016Z,1656
2016-09-01T05:00:37.466Z,1768
2016-09-01T05:01:40.698Z,1872
2016-09-01T05:02:37.970Z,1948
2016-09-01T05:03:37.003Z,2044
2016-09-01T05:04:37.830Z,2176
2016-09-01T05:06:38.521Z,2408
2016-09-01T05:07:38.281Z,2504
2016-09-01T05:08:38.169Z,2596
2016-09-01T05:09:37.627Z,2676
2016-09-01T05:10:37.916Z,2740
2016-09-01T05:11:38.336Z,2804
2016-09-01T05:12:38.023Z,2868
2016-09-01T05:13:39.001Z,2944
2016-09-01T05:14:37.612Z,3020
2016-09-01T05:15:40.525Z,3116
2016-09-01T05:16:37.315Z,3212
2016-09-01T05:17:37.861Z,3336
2016-09-01T05:18:39.433Z,3468
2016-09-01T05:19:39.280Z,3600
2016-09-01T05:20:39.285Z,3740
2016-09-01T05:21:38.793Z,3876
2016-09-01T05:22:40.395Z,4028
2016-09-01T05:23:38.314Z,4188
2016-09-01T05:24:38.400Z,4356
2016-09-01T05:25:39.303Z,4520
2016-09-01T05:26:36.931Z,4664
2016-09-01T05:27:39.638Z,4820
2016-09-01T05:28:41.101Z,4964
2016-09-01T05:29:38.861Z,5100
2016-09-01T05:30:39.916Z,5264
2016-09-01T05:31:38.472Z,5424
2016-09-01T05:32:40.150Z,5580
2016-09-01T05:33:37.967Z,5716
2016-09-01T05:34:37.426Z,5820
2016-09-01T05:35:37.767Z,5904
2016-09-01T05:36:39.576Z,5952
2016-09-01T05:37:37.877Z,5984
2016-09-01T05:38:37.547Z,6044
2016-09-01T05:39:38.668Z,6156
2016-09-01T05:40:39.806Z,6308
2016-09-01T05:41:40.877Z,6472
2016-09-01T05:42:39.525Z,6616
2016-09-01T05:43:40.556Z,6748
2016-09-01T05:44:39.530Z,6868
2016-09-01T05:45:38.059Z,6992
2016-09-01T05:46:40.639Z,7120
2016-09-01T05:47:37.958Z,7252
2016-09-01T05:48:39.256Z,7404
2016-09-01T05:49:39.302Z,7564
2016-09-01T05:50:37.766Z,7700
2016-09-01T05:51:41.124Z,7788
2016-09-01T05:52:39.361Z,7864
2016-09-01T05:53:39.264Z,7976
2016-09-01T05:54:40.034Z,8208
2016-09-01T05:55:38.507Z,8636
2016-09-01T05:56:39.567Z,9024
2016-09-01T05:57:39.284Z,9128
2016-09-01T05:58:40.246Z,9152
2016-09-01T05:59:38.968Z,9156
2016-09-01T06:00:40.329Z,9212
2016-09-01T06:01:40.990Z,9592
2016-09-01T06:02:41.128Z,9860
2016-09-01T06:03:39.324Z,10120
2016-09-01T06:04:39.432Z,10376
2016-09-01T06:05:40.690Z,10628
2016-09-01T06:06:40.892Z,10800
2016-09-01T06:07:40.384Z,10980
2016-09-01T06:08:39.394Z,11156
2016-09-01T06:09:41.130Z,11284
2016-09-01T06:10:40.301Z,11332
2016-09-01T06:12:40.494Z,11424
2016-09-01T06:13:39.842Z,11436
2016-09-01T06:14:39.757Z,11552
2016-09-01T06:15:42.790Z,11728
2016-09-01T06:16:40.147Z,12012
2016-09-01T06:17:40.225Z,12380
2016-09-01T06:18:39.997Z,12768
2016-09-01T06:19:40.437Z,13076
2016-09-01T06:20:39.611Z,13332
2016-09-01T06:21:41.541Z,13500
2016-09-01T06:22:41.120Z,13604
2016-09-01T06:23:40.536Z,13684
2016-09-01T06:24:40.557Z,13768
2016-09-01T06:25:42.235Z,14056
2016-09-01T06:26:41.623Z,14596
2016-09-01T06:27:41.881Z,15116
2016-09-01T06:28:42.057Z,15792
2016-09-01T06:29:40.652Z,16352
2016-09-01T06:30:41.278Z,16288
2016-09-01T06:31:39.450Z,16064
2016-09-01T06:32:40.101Z,16032
2016-09-01T06:33:39.080Z,16128
2016-09-01T06:34:39.654Z,16064
2016-09-01T06:35:39.913Z,16160
2016-09-01T06:36:40.870Z,16704
2016-09-01T06:37:41.695Z,17792
2016-09-01T06:38:40.988Z,17984
2016-09-01T06:39:42.854Z,18944
2016-09-01T06:40:43.183Z,20224
2016-09-01T06:41:41.238Z,19392
2016-09-01T06:42:42.213Z,18688
2016-09-01T06:43:41.606Z,19008
2016-09-01T06:44:41.827Z,18912
2016-09-01T06:45:41.265Z,18848
2016-09-01T06:46:41.614Z,18528
2016-09-01T06:47:41.861Z,18336
2016-09-01T06:48:41.227Z,18112
2016-09-01T06:49:41.343Z,18368
2016-09-01T06:50:39.770Z,19520
2016-09-01T06:51:40.500Z,20096
2016-09-01T06:52:42.800Z,20128
2016-09-01T06:53:41.670Z,20480
2016-09-01T06:54:42.586Z,21216
2016-09-01T06:55:40.456Z,23136
2016-09-01T06:56:40.771Z,24864
2016-09-01T06:57:40.876Z,25184
2016-09-01T06:58:40.658Z,24832
2016-09-01T06:59:40.048Z,24224
2016-09-01T07:00:40.892Z,22208
2016-09-01T07:01:40.669Z,20128
2016-09-01T07:02:40.322Z,18368
2016-09-01T07:03:43.215Z,15032
2016-09-01T07:04:42.103Z,14252
2016-09-01T07:05:40.999Z,14556
2016-09-01T07:06:39.878Z,15052
2016-09-01T07:07:40.127Z,16544
2016-09-01T07:08:40.347Z,21856
2016-09-01T07:09:42.790Z,21088
2016-09-01T07:10:41.605Z,24128
2016-09-01T07:11:44.228Z,24640
2016-09-01T07:12:41.215Z,24832
2016-09-01T07:13:40.655Z,25504
2016-09-01T07:14:40.761Z,25024
2016-09-01T07:15:41.202Z,25024
2016-09-01T07:16:41.624Z,25952
2016-09-01T07:17:40.212Z,25760
2016-09-01T07:18:40.187Z,25760
2016-09-01T07:19:40.970Z,26304
2016-09-01T07:20:42.406Z,26720
2016-09-01T07:21:41.402Z,26784
2016-09-01T07:22:41.815Z,26336
2016-09-01T07:23:41.981Z,27136
2016-09-01T07:24:39.764Z,28192
2016-09-01T07:25:43.085Z,29376
2016-09-01T07:26:42.094Z,29856
2016-09-01T07:27:40.233Z,30944
2016-09-01T07:28:41.354Z,30976
2016-09-01T07:29:42.269Z,30912
2016-09-01T07:30:41.066Z,31520
2016-09-01T07:31:40.683Z,30912
2016-09-01T07:32:41.204Z,31456
2016-09-01T07:33:41.676Z,32480
2016-09-01T07:34:41.423Z,32832
2016-09-01T07:35:43.278Z,33184
2016-09-01T07:36:42.160Z,33888
2016-09-01T07:37:41.655Z,34848
2016-09-01T07:38:43.213Z,35328
2016-09-01T07:39:41.965Z,35328
2016-09-01T07:40:42.242Z,35968
2016-09-01T07:41:42.964Z,37184
2016-09-01T07:42:42.984Z,37184
2016-09-01T07:43:41.305Z,38912
2016-09-01T07:44:40.398Z,39712
2016-09-01T07:45:40.941Z,38848
2016-09-01T07:46:40.300Z,38688
2016-09-01T07:47:41.659Z,38848
2016-09-01T07:48:40.750Z,38464
2016-09-01T07:49:42.672Z,38144
2016-09-01T07:50:42.775Z,39200
2016-09-01T07:51:42.091Z,39008
2016-09-01T07:52:41.662Z,39200
2016-09-01T07:53:43.059Z,36256
